Date,TemperatureHighF,TemperatureAvgF,TemperatureLowF,DewpointHighF,DewpointAvgF,DewpointLowF,HumidityHigh,HumidityAvg,HumidityLow,PressureMaxIn,PressureMinIn,WindSpeedMaxMPH,WindSpeedAvgMPH,GustSpeedMaxMPH,PrecipitationSumIn
2013-4-1,50.6,41.3,37.9,44.3,40.1,37.4,98,95,77,25.15,25.07,19,5,0,0.00
2013-4-2,56.2,47.4,40.3,46.6,40.2,28.6,98,77,57,25.17,25.10,12,3,0,0.00
2013-4-3,66.1,55.6,49.4,48.6,27.7,2.5,69,37,12,25.12,24.99,24,3,0,0.00
2013-4-4,53.3,46.5,42.6,49.1,40.2,6.9,98,85,15,25.08,24.94,26,10,0,0.00
2013-4-5,49.8,44.8,40.0,44.7,36.5,19.3,96,74,32,25.15,25.08,16,8,0,0.00
2013-4-6,48.4,44.6,38.4,44.7,33.7,8.4,92,69,21,25.17,25.13,20,9,0,0.00
2013-4-7,52.7,44.2,36.7,45.0,39.3,27.7,97,83,56,25.14,24.87,34,14,0,0.00
2013-4-8,37.3,33.0,27.5,36.3,30.3,26.5,97,90,68,25.07,24.75,43,12,0,0.00
2013-4-9,49.1,42.1,33.9,31.2,26.6,20.6,76,55,35,25.17,25.05,27,10,0,0.00
2013-4-10,63.0,53.7,47.2,40.3,30.2,20.5,58,41,32,25.21,25.07,24,11,0,0.00
2013-4-11,54.1,49.1,41.8,40.9,35.9,19.0,76,61,25,25.07,24.88,24,10,0,0.00
2013-4-12,65.5,56.0,49.3,38.8,33.4,24.2,62,43,28,24.93,24.87,16,3,0,0.00
2013-4-13,61.6,54.9,48.8,41.7,23.4,-24.6,75,36,3,24.88,24.81,26,12,0,0.00
2013-4-14,56.2,49.1,36.6,37.1,23.1,-4.1,95,43,9,24.89,24.81,32,14,0,0.00
2013-4-15,36.6,31.2,24.7,35.4,28.7,18.2,97,91,47,24.96,24.81,39,16,0,0.00
2013-4-16,36.2,28.0,25.8,28.7,25.8,24.3,96,91,72,25.14,24.97,11,3,0,0.00
2013-4-17,42.5,42.5,42.5,23.7,23.7,23.7,47,47,47,0.00,40.00,7,7,0,0.00
2013-4-18,56.4,50.5,47.0,29.7,26.6,22.3,50,40,27,25.25,25.21,12,5,0,0.00
2013-4-19,61.6,54.0,45.7,38.0,29.9,11.7,48,40,22,25.21,25.08,22,7,0,0.00
2013-4-20,70.1,59.1,49.2,41.9,29.6,-13.7,67,38,4,25.08,24.99,20,6,0,0.00
2013-4-21,71.0,64.1,56.2,35.0,20.6,-39.9,39,22,1,25.02,24.93,11,2,0,0.00
2013-4-22,70.6,62.6,56.8,39.5,30.8,18.8,40,30,20,24.95,24.86,14,5,0,0.00
2013-4-23,70.4,61.3,55.4,43.6,28.0,7.1,55,29,13,24.89,24.84,15,5,0,0.00
2013-4-24,65.0,58.4,50.4,47.1,36.2,23.1,77,45,28,24.86,24.79,14,3,0,0.00
2013-4-25,64.8,58.5,51.6,48.2,32.6,16.3,61,39,20,25.05,24.86,14,4,0,0.00
2013-4-26,67.3,58.7,53.9,36.1,22.2,13.1,46,25,17,25.14,25.06,12,4,0,0.00
2013-4-27,73.1,64.8,59.5,37.6,28.6,16.2,34,26,16,25.14,25.03,13,4,0,0.00
2013-4-28,76.1,67.3,61.5,39.5,16.4,-26.4,44,17,2,25.03,24.89,11,4,0,0.00
2013-4-29,73.0,65.6,59.7,42.2,33.7,14.5,52,31,15,24.88,24.80,18,8,0,0.00
2013-4-30,65.9,59.6,54.2,40.3,29.9,0.9,56,34,11,24.85,24.75,18,8,0,0.00